Kearns, Utah
Current Conditions -  °F | °C
As of 6:53 AM on Saturday 22 Nov 2014 (Local Time) from KSLC Reporting Station
Broken Clouds Broken Clouds  
Wind Chill:   Ceiling: 15000
Heat Index:   Visibility: 10mi
Dew Point: -4°   Wind: 20mph
Humidity: 44%   Direction: 180°S
Pressure: 29.87"   Gusts: NA
Location:  40.65°N, 111.96°W
Report Text: KSLC 221353Z 18017KT 10SM FEW075 SCT100 BKN150 07/M04 A2987 RMK AO2 PK WND 20026/1318 SLP109 T00721044
Loading
Personal Weather Stations






























Interactive Weather Map New forecast layout! Learn more

10-Day Weather Forecast

Advertisements
Track Severe Weather on mobile